sensor_id;sensor_type;location;lat;lon;timestamp;pressure;altitude;pressure_sealevel;temperature;humidity
13015;BME280;6573;57.696;11.950;2024-03-08T00:00:40;102751.34;;;5.28;100.00
13015;BME280;6573;57.696;11.950;2024-03-08T00:03:09;102753.97;;;5.28;100.00
13015;BME280;6573;57.696;11.950;2024-03-08T00:05:40;102772.16;;;5.44;100.00
13015;BME280;6573;57.696;11.950;2024-03-08T00:08:08;102772.84;;;5.40;100.00
13015;BME280;6573;57.696;11.950;2024-03-08T00:10:37;102752.09;;;5.25;100.00
13015;BME280;6573;57.696;11.950;2024-03-08T00:13:06;102764.47;;;5.29;100.00
13015;BME280;6573;57.696;11.950;2024-03-08T00:15:34;102761.63;;;5.24;100.00
13015;BME280;6573;57.696;11.950;2024-03-08T00:18:03;102770.25;;;5.23;100.00
13015;BME280;6573;57.696;11.950;2024-03-08T00:20:32;102771.91;;;5.21;100.00
13015;BME280;6573;57.696;11.950;2024-03-08T00:23:02;102768.66;;;5.26;100.00
13015;BME280;6573;57.696;11.950;2024-03-08T00:25:31;102766.63;;;5.20;100.00
13015;BME280;6573;57.696;11.950;2024-03-08T00:27:59;102645.19;;;4.40;100.00
13015;BME280;6573;57.696;11.950;2024-03-08T00:30:28;102752.44;;;4.97;100.00
13015;BME280;6573;57.696;11.950;2024-03-08T00:32:56;102743.91;;;5.01;100.00
13015;BME280;6573;57.696;11.950;2024-03-08T00:35:24;102759.91;;;5.07;100.00
13015;BME280;6573;57.696;11.950;2024-03-08T00:37:53;102729.75;;;4.96;100.00
13015;BME280;6573;57.696;11.950;2024-03-08T00:40:24;102746.53;;;5.01;100.00
13015;BME280;6573;57.696;11.950;2024-03-08T00:42:53;102754.63;;;5.06;100.00
13015;BME280;6573;57.696;11.950;2024-03-08T00:45:21;102739.38;;;4.97;100.00
13015;BME280;6573;57.696;11.950;2024-03-08T00:47:50;102760.06;;;5.10;100.00
13015;BME280;6573;57.696;11.950;2024-03-08T00:50:19;102723.13;;;4.85;100.00
13015;BME280;6573;57.696;11.950;2024-03-08T00:52:48;102704.84;;;4.68;100.00
13015;BME280;6573;57.696;11.950;2024-03-08T00:55:17;102747.88;;;4.93;100.00
13015;BME280;6573;57.696;11.950;2024-03-08T00:57:46;102749.03;;;4.82;100.00
13015;BME280;6573;57.696;11.950;2024-03-08T01:00:15;102698.41;;;4.61;100.00
13015;BME280;6573;57.696;11.950;2024-03-08T01:02:43;102739.91;;;4.74;100.00
13015;BME280;6573;57.696;11.950;2024-03-08T01:05:12;102741.88;;;4.78;100.00
13015;BME280;6573;57.696;11.950;2024-03-08T01:07:41;102726.59;;;4.68;100.00
13015;BME280;6573;57.696;11.950;2024-03-08T01:10:10;102741.66;;;4.91;100.00
13015;BME280;6573;57.696;11.950;2024-03-08T01:12:38;102735.31;;;4.86;100.00
13015;BME280;6573;57.696;11.950;2024-03-08T01:15:09;102743.88;;;5.00;100.00
13015;BME280;6573;57.696;11.950;2024-03-08T01:17:38;102703.94;;;4.67;100.00
13015;BME280;6573;57.696;11.950;2024-03-08T01:20:08;102737.44;;;4.93;100.00
13015;BME280;6573;57.696;11.950;2024-03-08T01:22:38;102722.25;;;5.02;100.00
13015;BME280;6573;57.696;11.950;2024-03-08T01:25:07;102721.09;;;5.13;100.00
13015;BME280;6573;57.696;11.950;2024-03-08T01:27:36;102711.72;;;4.83;100.00
13015;BME280;6573;57.696;11.950;2024-03-08T01:30:06;102709.38;;;4.72;100.00
13015;BME280;6573;57.696;11.950;2024-03-08T01:32:38;102688.78;;;4.60;100.00
13015;BME280;6573;57.696;11.950;2024-03-08T01:35:07;102710.59;;;4.78;100.00
13015;BME280;6573;57.696;11.950;2024-03-08T01:37:40;102679.69;;;4.52;100.00
13015;BME280;6573;57.696;11.950;2024-03-08T01:40:09;102704.88;;;4.51;100.00
13015;BME280;6573;57.696;11.950;2024-03-08T01:42:39;102678.91;;;4.37;100.00
13015;BME280;6573;57.696;11.950;2024-03-08T01:45:08;102689.97;;;4.49;100.00
13015;BME280;6573;57.696;11.950;2024-03-08T01:47:38;102701.44;;;4.52;100.00
13015;BME280;6573;57.696;11.950;2024-03-08T01:50:08;102704.78;;;4.50;100.00
13015;BME280;6573;57.696;11.950;2024-03-08T01:52:38;102696.06;;;4.49;100.00
13015;BME280;6573;57.696;11.950;2024-03-08T01:55:07;102694.22;;;4.31;100.00
13015;BME280;6573;57.696;11.950;2024-03-08T01:57:35;102690.78;;;4.32;100.00
13015;BME280;6573;57.696;11.950;2024-03-08T02:00:06;102679.81;;;4.21;100.00
13015;BME280;6573;57.696;11.950;2024-03-08T02:02:42;102694.78;;;4.25;100.00
13015;BME280;6573;57.696;11.950;2024-03-08T02:05:11;102677.97;;;4.19;100.00
13015;BME280;6573;57.696;11.950;2024-03-08T02:07:41;102680.06;;;4.26;100.00
13015;BME280;6573;57.696;11.950;2024-03-08T02:10:10;102674.84;;;4.26;100.00
13015;BME280;6573;57.696;11.950;2024-03-08T02:12:39;102679.91;;;4.23;100.00
13015;BME280;6573;57.696;11.950;2024-03-08T02:15:08;102634.47;;;4.18;100.00
13015;BME280;6573;57.696;11.950;2024-03-08T02:17:42;102620.03;;;4.07;100.00
13015;BME280;6573;57.696;11.950;2024-03-08T02:20:11;102669.31;;;4.20;100.00
13015;BME280;6573;57.696;11.950;2024-03-08T02:22:42;102674.84;;;4.26;100.00
13015;BME280;6573;57.696;11.950;2024-03-08T02:25:11;102673.22;;;4.44;100.00
13015;BME280;6573;57.696;11.950;2024-03-08T02:27:39;102654.63;;;4.38;100.00
13015;BME280;6573;57.696;11.950;2024-03-08T02:30:09;102653.91;;;4.40;100.00
13015;BME280;6573;57.696;11.950;2024-03-08T02:32:39;102650.72;;;4.46;100.00
13015;BME280;6573;57.696;11.950;2024-03-08T02:35:08;102661.50;;;4.36;100.00
13015;BME280;6573;57.696;11.950;2024-03-08T02:37:37;102542.00;;;3.60;100.00
13015;BME280;6573;57.696;11.950;2024-03-08T02:40:08;102652.84;;;4.37;100.00
13015;BME280;6573;57.696;11.950;2024-03-08T02:42:39;102640.81;;;4.39;100.00
13015;BME280;6573;57.696;11.950;2024-03-08T02:45:08;102658.38;;;4.43;100.00
13015;BME280;6573;57.696;11.950;2024-03-08T02:47:37;102627.97;;;4.26;100.00
13015;BME280;6573;57.696;11.950;2024-03-08T02:50:06;102658.22;;;4.40;100.00
13015;BME280;6573;57.696;11.950;2024-03-08T02:52:35;102649.09;;;4.32;100.00
13015;BME280;6573;57.696;11.950;2024-03-08T02:55:05;102656.22;;;4.52;100.00
13015;BME280;6573;57.696;11.950;2024-03-08T02:57:39;102658.22;;;4.40;100.00
13015;BME280;6573;57.696;11.950;2024-03-08T03:00:08;102654.00;;;4.26;100.00
13015;BME280;6573;57.696;11.950;2024-03-08T03:02:37;102648.63;;;4.23;100.00
13015;BME280;6573;57.696;11.950;2024-03-08T03:05:06;102603.44;;;3.88;100.00
13015;BME280;6573;57.696;11.950;2024-03-08T03:07:36;102651.91;;;4.19;100.00
13015;BME280;6573;57.696;11.950;2024-03-08T03:10:06;102597.41;;;3.73;100.00
13015;BME280;6573;57.696;11.950;2024-03-08T03:12:35;102637.13;;;4.02;100.00
13015;BME280;6573;57.696;11.950;2024-03-08T03:15:07;102617.75;;;3.80;100.00
13015;BME280;6573;57.696;11.950;2024-03-08T03:17:36;102606.84;;;3.87;100.00
13015;BME280;6573;57.696;11.950;2024-03-08T03:20:05;102548.94;;;3.43;100.00
13015;BME280;6573;57.696;11.950;2024-03-08T03:22:37;102642.72;;;3.93;100.00
13015;BME280;6573;57.696;11.950;2024-03-08T03:25:06;102571.22;;;3.70;100.00
13015;BME280;6573;57.696;11.950;2024-03-08T03:27:36;102574.22;;;3.78;100.00
13015;BME280;6573;57.696;11.950;2024-03-08T03:30:08;102631.75;;;3.99;100.00
13015;BME280;6573;57.696;11.950;2024-03-08T03:32:49;102631.22;;;3.89;100.00
13015;BME280;6573;57.696;11.950;2024-03-08T03:35:18;102622.31;;;3.84;100.00
13015;BME280;6573;57.696;11.950;2024-03-08T03:37:48;102626.53;;;3.82;100.00
13015;BME280;6573;57.696;11.950;2024-03-08T03:40:28;102628.81;;;3.92;100.00
13015;BME280;6573;57.696;11.950;2024-03-08T03:42:57;102622.16;;;3.81;100.00
13015;BME280;6573;57.696;11.950;2024-03-08T03:45:27;102626.63;;;3.84;100.00
13015;BME280;6573;57.696;11.950;2024-03-08T03:47:55;102629.06;;;3.81;100.00
13015;BME280;6573;57.696;11.950;2024-03-08T03:50:27;102619.03;;;3.72;100.00
13015;BME280;6573;57.696;11.950;2024-03-08T03:52:56;102601.78;;;3.58;100.00
13015;BME280;6573;57.696;11.950;2024-03-08T03:55:25;102619.53;;;3.65;100.00
13015;BME280;6573;57.696;11.950;2024-03-08T03:57:54;102626.91;;;3.58;100.00
13015;BME280;6573;57.696;11.950;2024-03-08T04:00:22;102633.03;;;3.58;100.00
13015;BME280;6573;57.696;11.950;2024-03-08T04:02:55;102622.59;;;3.58;100.00
13015;BME280;6573;57.696;11.950;2024-03-08T04:05:27;102588.44;;;3.36;100.00
13015;BME280;6573;57.696;11.950;2024-03-08T04:07:56;102617.41;;;3.58;100.00
13015;BME280;6573;57.696;11.950;2024-03-08T04:10:24;102586.00;;;3.55;100.00
13015;BME280;6573;57.696;11.950;2024-03-08T04:12:53;102621.16;;;3.63;100.00
13015;BME280;6573;57.696;11.950;2024-03-08T04:15:21;102588.28;;;3.33;100.00
13015;BME280;6573;57.696;11.950;2024-03-08T04:17:50;102611.53;;;3.46;100.00
13015;BME280;6573;57.696;11.950;2024-03-08T04:20:21;102609.25;;;3.36;100.00
13015;BME280;6573;57.696;11.950;2024-03-08T04:22:50;102614.63;;;3.39;100.00
13015;BME280;6573;57.696;11.950;2024-03-08T04:25:18;102586.31;;;3.29;100.00
13015;BME280;6573;57.696;11.950;2024-03-08T04:27:48;102539.69;;;3.32;100.00
13015;BME280;6573;57.696;11.950;2024-03-08T04:30:17;102603.19;;;3.68;100.00
13015;BME280;6573;57.696;11.950;2024-03-08T04:32:45;102597.41;;;3.73;100.00
13015;BME280;6573;57.696;11.950;2024-03-08T04:35:14;102599.53;;;3.80;100.00
13015;BME280;6573;57.696;11.950;2024-03-08T04:37:44;102605.72;;;3.66;100.00
13015;BME280;6573;57.696;11.950;2024-03-08T04:40:12;102596.28;;;3.52;100.00
13015;BME280;6573;57.696;11.950;2024-03-08T04:42:42;102588.09;;;3.30;100.00
13015;BME280;6573;57.696;11.950;2024-03-08T04:45:11;102591.13;;;3.38;100.00
13015;BME280;6573;57.696;11.950;2024-03-08T04:47:40;102592.00;;;3.38;100.00
13015;BME280;6573;57.696;11.950;2024-03-08T04:50:10;102592.84;;;3.37;100.00
13015;BME280;6573;57.696;11.950;2024-03-08T04:52:39;102588.09;;;3.30;100.00
13015;BME280;6573;57.696;11.950;2024-03-08T04:55:09;102591.69;;;3.32;100.00
13015;BME280;6573;57.696;11.950;2024-03-08T04:57:37;102593.47;;;3.33;100.00
13015;BME280;6573;57.696;11.950;2024-03-08T05:00:07;102524.84;;;2.99;100.00
13015;BME280;6573;57.696;11.950;2024-03-08T05:02:38;102590.25;;;3.37;100.00
13015;BME280;6573;57.696;11.950;2024-03-08T05:05:07;102555.06;;;3.13;100.00
13015;BME280;6573;57.696;11.950;2024-03-08T05:07:38;102593.28;;;3.30;100.00
13015;BME280;6573;57.696;11.950;2024-03-08T05:10:09;102558.81;;;3.02;100.00
13015;BME280;6573;57.696;11.950;2024-03-08T05:12:38;102592.56;;;3.16;100.00
13015;BME280;6573;57.696;11.950;2024-03-08T05:15:07;102597.03;;;3.19;100.00
13015;BME280;6573;57.696;11.950;2024-03-08T05:17:36;102575.56;;;3.23;100.00
13015;BME280;6573;57.696;11.950;2024-03-08T05:20:05;102588.63;;;3.39;100.00
13015;BME280;6573;57.696;11.950;2024-03-08T05:22:35;102565.28;;;3.24;100.00
13015;BME280;6573;57.696;11.950;2024-03-08T05:25:05;102561.28;;;3.15;100.00
13015;BME280;6573;57.696;11.950;2024-03-08T05:27:36;102583.38;;;3.23;100.00
13015;BME280;6573;57.696;11.950;2024-03-08T05:30:05;102492.13;;;2.72;100.00
13015;BME280;6573;57.696;11.950;2024-03-08T05:32:41;102596.72;;;3.29;100.00
13015;BME280;6573;57.696;11.950;2024-03-08T05:35:11;102565.59;;;3.14;100.00
13015;BME280;6573;57.696;11.950;2024-03-08T05:37:43;102573.44;;;3.16;100.00
13015;BME280;6573;57.696;11.950;2024-03-08T05:40:11;102585.84;;;3.20;100.00
13015;BME280;6573;57.696;11.950;2024-03-08T05:42:46;102586.63;;;3.35;100.00
13015;BME280;6573;57.696;11.950;2024-03-08T05:45:15;102566.47;;;3.15;100.00
13015;BME280;6573;57.696;11.950;2024-03-08T05:47:43;102543.03;;;2.99;100.00
13015;BME280;6573;57.696;11.950;2024-03-08T05:50:13;102495.56;;;2.87;100.00
13015;BME280;6573;57.696;11.950;2024-03-08T05:52:43;102579.66;;;3.34;100.00
13015;BME280;6573;57.696;11.950;2024-03-08T05:55:11;102560.69;;;3.20;100.00
13015;BME280;6573;57.696;11.950;2024-03-08T05:57:41;102564.19;;;3.21;100.00
13015;BME280;6573;57.696;11.950;2024-03-08T06:00:13;102509.00;;;2.94;100.00
13015;BME280;6573;57.696;11.950;2024-03-08T06:02:43;102577.88;;;3.33;100.00
13015;BME280;6573;57.696;11.950;2024-03-08T06:05:11;102572.34;;;3.27;100.00
13015;BME280;6573;57.696;11.950;2024-03-08T06:07:41;102584.34;;;3.25;100.00
13015;BME280;6573;57.696;11.950;2024-03-08T06:10:11;102575.94;;;3.29;100.00
13015;BME280;6573;57.696;11.950;2024-03-08T06:12:40;102574.47;;;3.34;100.00
13015;BME280;6573;57.696;11.950;2024-03-08T06:15:09;102581.13;;;3.29;100.00
13015;BME280;6573;57.696;11.950;2024-03-08T06:17:43;102561.78;;;3.24;100.00
13015;BME280;6573;57.696;11.950;2024-03-08T06:20:11;102542.41;;;3.19;100.00
13015;BME280;6573;57.696;11.950;2024-03-08T06:22:41;102545.69;;;3.15;100.00
13015;BME280;6573;57.696;11.950;2024-03-08T06:25:12;102564.53;;;3.27;100.00
13015;BME280;6573;57.696;11.950;2024-03-08T06:27:43;102560.31;;;3.29;100.00
13015;BME280;6573;57.696;11.950;2024-03-08T06:30:14;102573.31;;;3.45;100.00
13015;BME280;6573;57.696;11.950;2024-03-08T06:32:45;102580.81;;;3.55;100.00
13015;BME280;6573;57.696;11.950;2024-03-08T06:35:15;102559.44;;;3.45;100.00
13015;BME280;6573;57.696;11.950;2024-03-08T06:37:43;102537.53;;;3.25;100.00
13015;BME280;6573;57.696;11.950;2024-03-08T06:40:15;102571.53;;;3.60;100.00
13015;BME280;6573;57.696;11.950;2024-03-08T06:42:44;102579.78;;;3.52;100.00
13015;BME280;6573;57.696;11.950;2024-03-08T06:45:13;102564.88;;;3.49;100.00
13015;BME280;6573;57.696;11.950;2024-03-08T06:47:47;102496.59;;;3.05;100.00
13015;BME280;6573;57.696;11.950;2024-03-08T06:50:16;102527.94;;;3.40;100.00
13015;BME280;6573;57.696;11.950;2024-03-08T06:52:45;102530.22;;;3.50;100.00
13015;BME280;6573;57.696;11.950;2024-03-08T06:55:19;102495.63;;;3.19;100.00
13015;BME280;6573;57.696;11.950;2024-03-08T06:57:49;102563.91;;;3.63;100.00
13015;BME280;6573;57.696;11.950;2024-03-08T07:00:18;102539.50;;;3.45;100.00
13015;BME280;6573;57.696;11.950;2024-03-08T07:02:49;102560.97;;;3.73;100.00
13015;BME280;6573;57.696;11.950;2024-03-08T07:05:20;102528.78;;;3.71;100.00
13015;BME280;6573;57.696;11.950;2024-03-08T07:07:50;102539.09;;;3.86;100.00
13015;BME280;6573;57.696;11.950;2024-03-08T07:10:20;102552.94;;;4.19;100.00
13015;BME280;6573;57.696;11.950;2024-03-08T07:12:51;102517.19;;;3.99;100.00
13015;BME280;6573;57.696;11.950;2024-03-08T07:15:20;102538.28;;;3.87;100.00
13015;BME280;6573;57.696;11.950;2024-03-08T07:17:52;102511.63;;;3.92;100.00
13015;BME280;6573;57.696;11.950;2024-03-08T07:20:21;102542.03;;;4.10;100.00
13015;BME280;6573;57.696;11.950;2024-03-08T07:22:50;102551.47;;;4.24;100.00
13015;BME280;6573;57.696;11.950;2024-03-08T07:25:19;102553.16;;;4.23;100.00
13015;BME280;6573;57.696;11.950;2024-03-08T07:27:52;102506.63;;;4.13;100.00
13015;BME280;6573;57.696;11.950;2024-03-08T07:30:22;102497.13;;;4.14;100.00
13015;BME280;6573;57.696;11.950;2024-03-08T07:33:11;102534.28;;;4.45;100.00
13015;BME280;6573;57.696;11.950;2024-03-08T07:35:41;102560.13;;;4.58;100.00
13015;BME280;6573;57.696;11.950;2024-03-08T07:38:11;102537.06;;;4.32;100.00
13015;BME280;6573;57.696;11.950;2024-03-08T07:40:42;102527.78;;;4.37;100.00
13015;BME280;6573;57.696;11.950;2024-03-08T07:43:12;102500.69;;;4.16;100.00
13015;BME280;6573;57.696;11.950;2024-03-08T07:45:41;102467.03;;;4.03;100.00
13015;BME280;6573;57.696;11.950;2024-03-08T07:48:12;102545.44;;;4.60;100.00
13015;BME280;6573;57.696;11.950;2024-03-08T07:50:41;102463.19;;;4.30;100.00
13015;BME280;6573;57.696;11.950;2024-03-08T07:53:10;102529.06;;;4.80;100.00
13015;BME280;6573;57.696;11.950;2024-03-08T07:55:38;102485.72;;;4.47;100.00
13015;BME280;6573;57.696;11.950;2024-03-08T07:58:09;102522.28;;;4.84;100.00
13015;BME280;6573;57.696;11.950;2024-03-08T08:00:38;102509.16;;;4.82;100.00
13015;BME280;6573;57.696;11.950;2024-03-08T08:03:08;102503.19;;;4.85;100.00
13015;BME280;6573;57.696;11.950;2024-03-08T08:05:39;102521.47;;;5.04;100.00
13015;BME280;6573;57.696;11.950;2024-03-08T08:08:08;102521.03;;;5.12;100.00
13015;BME280;6573;57.696;11.950;2024-03-08T08:10:38;102446.09;;;4.72;100.00
13015;BME280;6573;57.696;11.950;2024-03-08T08:13:07;102385.75;;;4.45;100.00
13015;BME280;6573;57.696;11.950;2024-03-08T08:15:36;102519.88;;;5.25;100.00
13015;BME280;6573;57.696;11.950;2024-03-08T08:18:05;102507.44;;;5.39;100.00
13015;BME280;6573;57.696;11.950;2024-03-08T08:20:39;102481.28;;;5.37;100.00
13015;BME280;6573;57.696;11.950;2024-03-08T08:23:08;102520.94;;;5.48;100.00
13015;BME280;6573;57.696;11.950;2024-03-08T08:25:39;102514.13;;;5.70;100.00
13015;BME280;6573;57.696;11.950;2024-03-08T08:28:08;102511.38;;;5.48;100.00
13015;BME280;6573;57.696;11.950;2024-03-08T08:30:39;102515.97;;;5.54;100.00
13015;BME280;6573;57.696;11.950;2024-03-08T08:33:08;102523.53;;;5.67;100.00
13015;BME280;6573;57.696;11.950;2024-03-08T08:35:39;102516.16;;;5.77;100.00
13015;BME280;6573;57.696;11.950;2024-03-08T08:38:08;102495.75;;;5.69;100.00
13015;BME280;6573;57.696;11.950;2024-03-08T08:40:38;102514.31;;;5.94;100.00
13015;BME280;6573;57.696;11.950;2024-03-08T08:43:08;102509.44;;;6.22;100.00
13015;BME280;6573;57.696;11.950;2024-03-08T08:45:37;102500.44;;;5.95;100.00
13015;BME280;6573;57.696;11.950;2024-03-08T08:48:06;102506.56;;;6.16;100.00
13015;BME280;6573;57.696;11.950;2024-03-08T08:50:42;102514.44;;;6.38;100.00
13015;BME280;6573;57.696;11.950;2024-03-08T08:53:12;102507.19;;;6.52;100.00
13015;BME280;6573;57.696;11.950;2024-03-08T08:55:41;102436.00;;;5.96;100.00
13015;BME280;6573;57.696;11.950;2024-03-08T08:58:10;102496.50;;;6.47;100.00
13015;BME280;6573;57.696;11.950;2024-03-08T09:00:39;102494.16;;;6.53;100.00
13015;BME280;6573;57.696;11.950;2024-03-08T09:03:08;102474.78;;;6.48;100.00
13015;BME280;6573;57.696;11.950;2024-03-08T09:05:37;102484.44;;;6.94;100.00
13015;BME280;6573;57.696;11.950;2024-03-08T09:08:10;102478.94;;;7.10;100.00
13015;BME280;6573;57.696;11.950;2024-03-08T09:10:41;102413.09;;;6.76;100.00
13015;BME280;6573;57.696;11.950;2024-03-08T09:13:13;102417.91;;;6.87;100.00
13015;BME280;6573;57.696;11.950;2024-03-08T09:15:56;102465.59;;;7.26;100.00
13015;BME280;6573;57.696;11.950;2024-03-08T09:18:25;102477.09;;;7.53;100.00
13015;BME280;6573;57.696;11.950;2024-03-08T09:20:54;102390.22;;;7.16;100.00
13015;BME280;6573;57.696;11.950;2024-03-08T09:23:25;102448.84;;;7.70;100.00
13015;BME280;6573;57.696;11.950;2024-03-08T09:25:57;102346.78;;;6.97;100.00
13015;BME280;6573;57.696;11.950;2024-03-08T09:28:26;102424.47;;;7.47;100.00
13015;BME280;6573;57.696;11.950;2024-03-08T09:30:57;102446.63;;;7.80;100.00
13015;BME280;6573;57.696;11.950;2024-03-08T09:33:33;102410.47;;;7.96;100.00
13015;BME280;6573;57.696;11.950;2024-03-08T09:36:06;102452.19;;;8.16;100.00
13015;BME280;6573;57.696;11.950;2024-03-08T09:38:37;102450.53;;;8.18;100.00
13015;BME280;6573;57.696;11.950;2024-03-08T09:41:09;102421.75;;;8.20;100.00
13015;BME280;6573;57.696;11.950;2024-03-08T09:43:39;102375.09;;;8.10;100.00
13015;BME280;6573;57.696;11.950;2024-03-08T09:46:09;102417.50;;;8.50;100.00
13015;BME280;6573;57.696;11.950;2024-03-08T09:48:39;102367.97;;;8.31;100.00
13015;BME280;6573;57.696;11.950;2024-03-08T09:51:09;102434.41;;;8.88;100.00
13015;BME280;6573;57.696;11.950;2024-03-08T09:53:43;102438.19;;;8.97;100.00
13015;BME280;6573;57.696;11.950;2024-03-08T09:56:14;102347.81;;;8.58;100.00
13015;BME280;6573;57.696;11.950;2024-03-08T09:58:43;102406.59;;;8.94;100.00
13015;BME280;6573;57.696;11.950;2024-03-08T10:01:41;102431.81;;;9.18;100.00
13015;BME280;6573;57.696;11.950;2024-03-08T10:04:12;102428.13;;;9.42;100.00
13015;BME280;6573;57.696;11.950;2024-03-08T10:06:42;102409.56;;;9.38;100.00
13015;BME280;6573;57.696;11.950;2024-03-08T10:09:12;102333.13;;;8.94;100.00
13015;BME280;6573;57.696;11.950;2024-03-08T10:11:41;102420.19;;;9.41;100.00
13015;BME280;6573;57.696;11.950;2024-03-08T10:14:10;102391.03;;;9.32;100.00
13015;BME280;6573;57.696;11.950;2024-03-08T10:16:39;102406.13;;;9.39;100.00
13015;BME280;6573;57.696;11.950;2024-03-08T10:19:08;102418.06;;;9.59;100.00
13015;BME280;6573;57.696;11.950;2024-03-08T10:21:48;102395.34;;;9.61;100.00
13015;BME280;6573;57.696;11.950;2024-03-08T10:24:18;102348.97;;;9.63;100.00
13015;BME280;6573;57.696;11.950;2024-03-08T10:26:46;102280.06;;;9.39;100.00
13015;BME280;6573;57.696;11.950;2024-03-08T10:29:16;102377.22;;;10.42;100.00
13015;BME280;6573;57.696;11.950;2024-03-08T10:31:45;102392.91;;;10.76;100.00
13015;BME280;6573;57.696;11.950;2024-03-08T10:34:14;102389.84;;;10.96;100.00
13015;BME280;6573;57.696;11.950;2024-03-08T10:36:44;102390.84;;;11.03;100.00
13015;BME280;6573;57.696;11.950;2024-03-08T10:39:24;102330.84;;;10.09;100.00
13015;BME280;6573;57.696;11.950;2024-03-08T10:41:56;102394.50;;;10.30;100.00
13015;BME280;6573;57.696;11.950;2024-03-08T10:44:36;102304.31;;;10.00;100.00
13015;BME280;6573;57.696;11.950;2024-03-08T10:47:16;102356.53;;;10.57;100.00
13015;BME280;6573;57.696;11.950;2024-03-08T10:49:51;102377.03;;;10.73;100.00
13015;BME280;6573;57.696;11.950;2024-03-08T10:52:23;102382.47;;;10.80;100.00
13015;BME280;6573;57.696;11.950;2024-03-08T10:54:56;102364.06;;;10.82;100.00
13015;BME280;6573;57.696;11.950;2024-03-08T10:57:27;102376.03;;;10.68;100.00
13015;BME280;6573;57.696;11.950;2024-03-08T10:59:56;102348.38;;;10.46;100.00
13015;BME280;6573;57.696;11.950;2024-03-08T11:02:27;102374.53;;;10.79;100.00
13015;BME280;6573;57.696;11.950;2024-03-08T11:04:57;102311.75;;;10.16;100.00
13015;BME280;6573;57.696;11.950;2024-03-08T11:07:27;102369.06;;;10.70;100.00
13015;BME280;6573;57.696;11.950;2024-03-08T11:09:58;102319.53;;;10.51;100.00
13015;BME280;6573;57.696;11.950;2024-03-08T11:12:29;102287.88;;;10.48;100.00
13015;BME280;6573;57.696;11.950;2024-03-08T11:15:26;102339.44;;;10.80;100.00
13015;BME280;6573;57.696;11.950;2024-03-08T11:18:00;102316.91;;;10.52;100.00
13015;BME280;6573;57.696;11.950;2024-03-08T11:20:29;102362.53;;;10.91;100.00
13015;BME280;6573;57.696;11.950;2024-03-08T11:23:04;102338.50;;;10.76;100.00
13015;BME280;6573;57.696;11.950;2024-03-08T11:25:39;102352.13;;;10.99;100.00
13015;BME280;6573;57.696;11.950;2024-03-08T11:28:13;102350.75;;;11.19;100.00
13015;BME280;6573;57.696;11.950;2024-03-08T11:31:22;102309.13;;;11.00;100.00
13015;BME280;6573;57.696;11.950;2024-03-08T11:33:40;102323.97;;;10.95;100.00
13015;BME280;6573;57.696;11.950;2024-03-08T11:36:11;102323.44;;;11.14;100.00
13015;BME280;6573;57.696;11.950;2024-03-08T11:38:44;102308.38;;;11.07;100.00
13015;BME280;6573;57.696;11.950;2024-03-08T11:41:21;102340.97;;;11.58;100.00
13015;BME280;6573;57.696;11.950;2024-03-08T11:44:02;102328.03;;;11.72;100.00
13015;BME280;6573;57.696;11.950;2024-03-08T11:46:32;102333.31;;;11.72;100.00
13015;BME280;6573;57.696;11.950;2024-03-08T11:49:02;102273.59;;;11.23;100.00
13015;BME280;6573;57.696;11.950;2024-03-08T11:51:31;102233.31;;;11.30;100.00
13015;BME280;6573;57.696;11.950;2024-03-08T11:54:01;102268.84;;;11.53;100.00
13015;BME280;6573;57.696;11.950;2024-03-08T11:56:32;102306.66;;;12.08;100.00
13015;BME280;6573;57.696;11.950;2024-03-08T11:59:01;102285.69;;;11.63;100.00
13015;BME280;6573;57.696;11.950;2024-03-08T12:01:31;102311.69;;;11.94;100.00
13015;BME280;6573;57.696;11.950;2024-03-08T12:04:01;102307.50;;;12.05;100.00
13015;BME280;6573;57.696;11.950;2024-03-08T12:06:39;102261.28;;;11.73;100.00
13015;BME280;6573;57.696;11.950;2024-03-08T12:09:10;102212.63;;;11.54;100.00
13015;BME280;6573;57.696;11.950;2024-03-08T12:11:43;102290.00;;;12.13;100.00
13015;BME280;6573;57.696;11.950;2024-03-08T12:14:16;102229.97;;;11.96;100.00
13015;BME280;6573;57.696;11.950;2024-03-08T12:16:47;102212.94;;;11.73;100.00
13015;BME280;6573;57.696;11.950;2024-03-08T12:19:18;102273.53;;;12.31;100.00
13015;BME280;6573;57.696;11.950;2024-03-08T12:21:48;102294.06;;;12.52;100.00
13015;BME280;6573;57.696;11.950;2024-03-08T12:24:18;102216.22;;;12.19;100.00
13015;BME280;6573;57.696;11.950;2024-03-08T12:26:51;102275.38;;;12.35;100.00
13015;BME280;6573;57.696;11.950;2024-03-08T12:29:33;102277.38;;;12.54;100.00
13015;BME280;6573;57.696;11.950;2024-03-08T12:32:09;102268.25;;;12.31;100.00
13015;BME280;6573;57.696;11.950;2024-03-08T12:34:39;102241.97;;;12.37;100.00
13015;BME280;6573;57.696;11.950;2024-03-08T12:37:09;102279.16;;;12.58;100.00
13015;BME280;6573;57.696;11.950;2024-03-08T12:39:40;102238.78;;;12.65;100.00
13015;BME280;6573;57.696;11.950;2024-03-08T12:42:17;102258.38;;;12.85;100.00
13015;BME280;6573;57.696;11.950;2024-03-08T12:44:47;102231.91;;;12.79;100.00
13015;BME280;6573;57.696;11.950;2024-03-08T12:47:16;102255.19;;;13.14;100.00
13015;BME280;6573;57.696;11.950;2024-03-08T12:49:50;102246.31;;;13.10;100.00
13015;BME280;6573;57.696;11.950;2024-03-08T12:52:34;102221.53;;;13.00;100.00
13015;BME280;6573;57.696;11.950;2024-03-08T12:55:08;102191.44;;;12.83;100.00
13015;BME280;6573;57.696;11.950;2024-03-08T12:57:43;102152.69;;;12.79;100.00
13015;BME280;6573;57.696;11.950;2024-03-08T13:00:17;102237.63;;;13.19;99.05
13015;BME280;6573;57.696;11.950;2024-03-08T13:02:53;102240.16;;;13.07;100.00
13015;BME280;6573;57.696;11.950;2024-03-08T13:05:22;102219.78;;;12.99;100.00